Time;durP1;ratioP1;P1;durP2;ratioP2;P2;SDS_P1;SDS_P2;PMS_P1;PMS_P2;Temp;Humidity;BMP_temperature;BMP_pressure;BME280_temperature;BME280_humidity;BME280_pressure;Samples;Min_cycle;Max_cycle;Signal;HPM_P1;HPM_P2
2023/09/24 00:00:10;;;;;;;4.53;2.33;;;12.50;99.90;;;;;;4992517;28;20034;-78
2023/09/24 00:02:36;;;;;;;3.53;2.13;;;12.50;99.90;;;;;;4989138;28;20094;-77
2023/09/24 00:05:04;;;;;;;6.05;2.40;;;12.40;99.90;;;;;;4993960;28;20041;-77
2023/09/24 00:07:30;;;;;;;6.18;2.50;;;12.40;99.90;;;;;;4991643;28;20054;-77
2023/09/24 00:09:59;;;;;;;4.03;2.08;;;12.30;99.90;;;;;;4993630;28;20040;-77
2023/09/24 00:12:25;;;;;;;7.72;2.38;;;12.30;99.90;;;;;;4991061;28;20045;-76
2023/09/24 00:14:51;;;;;;;5.55;2.30;;;12.20;99.90;;;;;;4972920;28;20046;-76
2023/09/24 00:17:16;;;;;;;4.22;2.60;;;12.20;99.90;;;;;;4993634;28;20096;-76
2023/09/24 00:19:42;;;;;;;5.07;2.30;;;12.20;99.90;;;;;;4992187;28;20044;-77
2023/09/24 00:22:07;;;;;;;8.80;2.75;;;12.10;99.90;;;;;;4993626;28;20075;-77
2023/09/24 00:24:33;;;;;;;5.47;2.30;;;12.00;99.90;;;;;;4992179;28;20121;-75
2023/09/24 00:26:58;;;;;;;4.50;2.50;;;12.00;99.90;;;;;;4990476;28;20136;-77
2023/09/24 00:29:24;;;;;;;7.30;2.38;;;12.00;99.90;;;;;;4991805;28;20519;-77
2023/09/24 00:31:49;;;;;;;6.10;2.17;;;11.90;99.90;;;;;;4993283;28;20092;-76
2023/09/24 00:34:16;;;;;;;5.85;2.55;;;11.90;99.90;;;;;;4992737;28;20460;-76
2023/09/24 00:36:41;;;;;;;4.03;2.25;;;11.80;99.90;;;;;;4992361;28;20092;-76
2023/09/24 00:39:07;;;;;;;4.07;2.30;;;11.80;99.90;;;;;;4992021;28;20069;-77
2023/09/24 00:41:32;;;;;;;6.07;2.40;;;11.80;99.90;;;;;;4992013;28;20556;-77
2023/09/24 00:43:58;;;;;;;6.72;2.83;;;11.80;99.90;;;;;;4990836;28;20116;-77
2023/09/24 00:46:23;;;;;;;5.85;2.70;;;11.70;99.90;;;;;;4991846;28;20117;-76
2023/09/24 00:48:51;;;;;;;9.68;2.67;;;11.70;99.90;;;;;;4991719;28;20464;-76
2023/09/24 00:51:19;;;;;;;6.70;2.35;;;11.70;99.90;;;;;;4975656;28;20064;-77
2023/09/24 00:53:46;;;;;;;5.93;3.13;;;11.70;99.90;;;;;;4992738;28;20513;-77
2023/09/24 00:56:13;;;;;;;5.70;2.70;;;11.60;99.90;;;;;;4986418;28;20042;-77
2023/09/24 00:58:40;;;;;;;5.13;2.38;;;11.60;99.90;;;;;;4991724;28;20497;-77
2023/09/24 01:01:06;;;;;;;6.13;2.65;;;11.60;99.90;;;;;;4992329;28;20041;-78
2023/09/24 01:03:32;;;;;;;8.25;2.22;;;11.60;99.90;;;;;;4992338;28;20034;-77
2023/09/24 01:05:58;;;;;;;4.38;2.42;;;11.60;99.90;;;;;;4992414;28;20038;-77
2023/09/24 01:08:33;;;;;;;7.93;2.50;;;11.50;99.90;;;;;;4989342;28;20035;-77
2023/09/24 01:11:03;;;;;;;4.60;2.40;;;11.50;99.90;;;;;;4991970;28;20449;-77
2023/09/24 01:13:43;;;;;;;5.72;2.30;;;11.50;99.90;;;;;;4991659;28;20412;-76
2023/09/24 01:16:10;;;;;;;4.32;2.00;;;11.50;99.90;;;;;;4988023;28;20448;-78
2023/09/24 01:18:37;;;;;;;6.25;2.10;;;11.50;99.90;;;;;;4991181;28;20030;-77
2023/09/24 01:21:17;;;;;;;2.80;2.20;;;11.40;99.90;;;;;;4990800;28;20034;-77
2023/09/24 01:23:45;;;;;;;5.40;2.30;;;11.40;99.90;;;;;;5009308;28;20034;-77
2023/09/24 01:26:12;;;;;;;6.80;2.30;;;11.40;99.90;;;;;;4989146;28;20050;-76
2023/09/24 01:28:39;;;;;;;2.80;1.83;;;11.40;99.90;;;;;;4981757;28;20493;-77
2023/09/24 01:31:05;;;;;;;5.60;2.05;;;11.30;99.90;;;;;;4990835;28;20034;-77
2023/09/24 01:33:31;;;;;;;3.72;1.95;;;11.30;99.90;;;;;;4991628;28;20044;-77
2023/09/24 01:35:58;;;;;;;3.50;2.08;;;11.30;99.90;;;;;;4998281;28;20045;-77
2023/09/24 01:38:24;;;;;;;4.55;2.20;;;11.30;99.90;;;;;;4991347;28;20041;-77
2023/09/24 01:40:51;;;;;;;4.30;2.17;;;11.20;99.90;;;;;;4993675;28;20184;-77
2023/09/24 01:43:17;;;;;;;5.18;2.00;;;11.20;99.90;;;;;;4988999;28;20041;-76
2023/09/24 01:45:43;;;;;;;5.35;1.90;;;11.20;99.90;;;;;;4992869;28;20049;-76
2023/09/24 01:48:09;;;;;;;6.30;1.98;;;11.20;99.90;;;;;;4992218;28;20473;-77
2023/09/24 01:50:36;;;;;;;6.35;2.20;;;11.20;99.90;;;;;;4991210;28;20045;-77
2023/09/24 01:53:03;;;;;;;7.68;2.42;;;11.20;99.90;;;;;;4993240;28;20041;-77
2023/09/24 01:55:29;;;;;;;5.55;2.10;;;11.10;99.90;;;;;;4991289;28;20045;-77
2023/09/24 01:58:01;;;;;;;2.80;1.80;;;11.10;99.90;;;;;;4991266;28;20072;-76
2023/09/24 02:00:27;;;;;;;5.35;1.98;;;11.10;99.90;;;;;;4990668;28;20560;-77
2023/09/24 02:02:54;;;;;;;3.58;1.73;;;11.10;99.90;;;;;;4992674;28;20042;-77
2023/09/24 02:05:20;;;;;;;5.38;1.98;;;11.10;99.90;;;;;;4991657;28;20042;-77
2023/09/24 02:07:50;;;;;;;3.05;1.60;;;11.00;99.90;;;;;;4989140;28;20493;-76
2023/09/24 02:10:18;;;;;;;4.40;1.80;;;11.00;99.90;;;;;;4976656;28;20062;-77
2023/09/24 02:12:45;;;;;;;3.65;2.20;;;11.00;99.90;;;;;;4984390;28;20065;-77
2023/09/24 02:15:12;;;;;;;5.90;2.10;;;11.10;99.90;;;;;;4992287;28;20521;-76
2023/09/24 02:17:39;;;;;;;5.60;2.30;;;11.10;99.90;;;;;;4998210;28;20045;-77
2023/09/24 02:20:14;;;;;;;3.42;2.17;;;11.00;99.90;;;;;;4995420;28;20080;-77
2023/09/24 02:22:40;;;;;;;6.15;2.20;;;11.00;99.90;;;;;;4995016;28;20476;-78
2023/09/24 02:25:08;;;;;;;5.82;2.08;;;11.00;99.90;;;;;;4995852;28;20065;-77
2023/09/24 02:27:34;;;;;;;3.22;2.05;;;11.00;99.90;;;;;;4994450;28;20500;-77
2023/09/24 02:29:59;;;;;;;3.55;2.03;;;11.00;99.90;;;;;;4994810;28;20130;-77
2023/09/24 02:32:27;;;;;;;4.70;1.90;;;10.90;99.90;;;;;;4995700;28;20081;-75
2023/09/24 02:34:53;;;;;;;4.68;1.92;;;10.90;99.90;;;;;;4995114;28;20060;-76
2023/09/24 02:37:18;;;;;;;5.72;2.08;;;10.90;99.90;;;;;;4978828;28;20116;-76
2023/09/24 02:39:44;;;;;;;6.65;2.00;;;10.90;99.90;;;;;;4998503;28;20040;-77
2023/09/24 02:42:09;;;;;;;2.88;1.77;;;10.90;99.90;;;;;;4994442;28;20038;-76
2023/09/24 02:44:36;;;;;;;4.18;1.80;;;10.90;99.90;;;;;;4996196;28;20046;-77
2023/09/24 02:47:04;;;;;;;3.38;1.90;;;10.80;99.90;;;;;;4993373;28;20037;-76
2023/09/24 02:49:29;;;;;;;3.65;2.22;;;10.80;99.90;;;;;;4993683;28;20041;-77
2023/09/24 02:51:55;;;;;;;4.22;2.00;;;10.80;99.90;;;;;;4977744;28;20497;-76
2023/09/24 02:54:21;;;;;;;4.18;2.22;;;10.80;99.90;;;;;;4995025;28;20045;-77
2023/09/24 02:56:46;;;;;;;4.85;1.83;;;10.80;99.90;;;;;;4995336;28;20030;-76
2023/09/24 02:59:12;;;;;;;4.95;1.65;;;10.80;99.90;;;;;;4994556;28;20041;-75
2023/09/24 03:01:46;;;;;;;4.47;2.20;;;10.80;99.90;;;;;;4990743;28;20086;-76
2023/09/24 03:04:12;;;;;;;3.33;1.90;;;10.80;99.90;;;;;;4994024;28;20084;-76
2023/09/24 03:06:37;;;;;;;5.25;2.28;;;10.70;99.90;;;;;;4993046;28;20042;-76
2023/09/24 03:09:06;;;;;;;3.50;2.58;;;10.80;99.90;;;;;;4993664;28;20044;-76
2023/09/24 03:11:32;;;;;;;3.67;2.35;;;10.80;99.90;;;;;;4992221;28;20042;-75
2023/09/24 03:13:58;;;;;;;5.57;2.40;;;10.70;99.90;;;;;;4994456;28;20054;-76
2023/09/24 03:16:26;;;;;;;4.28;2.50;;;10.80;99.90;;;;;;4993237;28;20092;-76
2023/09/24 03:18:51;;;;;;;5.05;2.72;;;10.80;99.90;;;;;;4977374;28;20030;-76
2023/09/24 03:21:17;;;;;;;4.50;2.70;;;10.80;99.90;;;;;;4993574;28;20046;-77
2023/09/24 03:23:42;;;;;;;4.78;2.80;;;10.90;99.90;;;;;;4994673;28;20474;-76
2023/09/24 03:26:14;;;;;;;6.70;3.08;;;10.80;99.90;;;;;;4993493;28;20497;-75
2023/09/24 03:28:39;;;;;;;5.10;3.30;;;10.90;99.90;;;;;;4998841;28;20038;-76
2023/09/24 03:31:05;;;;;;;5.07;3.30;;;10.90;99.90;;;;;;4993719;28;20072;-76
2023/09/24 03:33:30;;;;;;;4.78;3.13;;;10.80;99.90;;;;;;4992226;28;20072;-76
2023/09/24 03:35:56;;;;;;;3.90;3.25;;;10.90;99.90;;;;;;4993444;28;20505;-75
2023/09/24 03:38:22;;;;;;;6.65;3.55;;;10.90;99.90;;;;;;4993099;28;20033;-75
2023/09/24 03:40:48;;;;;;;6.90;3.90;;;10.90;99.90;;;;;;4992416;28;20555;-75
2023/09/24 03:43:14;;;;;;;5.40;3.30;;;10.80;99.90;;;;;;4995279;28;20132;-77
2023/09/24 03:45:40;;;;;;;6.05;3.80;;;10.80;99.90;;;;;;4994463;28;20060;-76
2023/09/24 03:48:06;;;;;;;7.53;4.28;;;10.80;99.90;;;;;;4994873;28;20495;-76
2023/09/24 03:50:31;;;;;;;5.07;4.25;;;10.80;99.90;;;;;;4993506;28;20063;-77
2023/09/24 03:52:59;;;;;;;7.07;3.55;;;10.80;99.90;;;;;;4993830;28;20076;-76
2023/09/24 03:55:25;;;;;;;7.53;4.30;;;10.80;99.90;;;;;;4993420;28;20049;-76
2023/09/24 03:57:50;;;;;;;9.32;5.28;;;10.80;99.90;;;;;;4992930;28;20026;-77
2023/09/24 04:00:18;;;;;;;8.48;5.25;;;10.70;99.90;;;;;;4992332;28;20504;-77
2023/09/24 04:02:48;;;;;;;5.85;4.60;;;10.70;99.90;;;;;;4993142;28;20436;-75
2023/09/24 04:05:18;;;;;;;8.30;4.90;;;10.70;99.90;;;;;;4991769;28;20044;-76
2023/09/24 04:07:49;;;;;;;7.75;5.13;;;10.70;99.90;;;;;;4991691;28;20042;-76
2023/09/24 04:10:15;;;;;;;8.88;5.30;;;10.70;99.90;;;;;;4992230;28;20037;-76
2023/09/24 04:12:43;;;;;;;8.65;5.50;;;10.70;99.90;;;;;;4992414;28;20061;-77
2023/09/24 04:15:09;;;;;;;6.40;5.22;;;10.70;99.90;;;;;;4974848;28;20585;-76
2023/09/24 04:17:36;;;;;;;7.90;5.65;;;10.70;99.90;;;;;;4993656;28;20026;-76
2023/09/24 04:20:03;;;;;;;8.70;6.30;;;10.70;99.90;;;;;;4991734;28;20042;-76
2023/09/24 04:22:29;;;;;;;8.85;5.70;;;10.60;99.90;;;;;;4992878;28;20346;-76
2023/09/24 04:24:54;;;;;;;12.20;6.63;;;10.60;99.90;;;;;;4995124;28;20048;-76
2023/09/24 04:27:23;;;;;;;11.30;6.20;;;10.60;99.90;;;;;;4992628;28;20253;-77
2023/09/24 04:29:49;;;;;;;7.45;5.93;;;10.60;99.90;;;;;;5011741;28;20034;-77
2023/09/24 04:32:15;;;;;;;10.30;6.32;;;10.60;99.90;;;;;;4992523;28;20374;-76
2023/09/24 04:34:42;;;;;;;11.85;6.13;;;10.60;99.90;;;;;;4988373;28;20037;-77
2023/09/24 04:37:07;;;;;;;8.48;5.80;;;10.60;99.90;;;;;;4990165;28;20041;-76
2023/09/24 04:39:33;;;;;;;10.93;6.18;;;10.50;99.90;;;;;;4989819;28;20045;-75
2023/09/24 04:41:58;;;;;;;9.82;6.18;;;10.50;99.90;;;;;;4991595;28;20030;-76
2023/09/24 04:44:24;;;;;;;9.85;5.60;;;10.50;99.90;;;;;;4992237;28;20046;-76
2023/09/24 04:46:50;;;;;;;8.73;6.03;;;10.50;99.90;;;;;;4978332;28;20049;-75
2023/09/24 04:49:15;;;;;;;9.48;6.20;;;10.50;99.90;;;;;;4990812;28;20091;-76
2023/09/24 04:51:41;;;;;;;12.95;6.22;;;10.50;99.90;;;;;;4992811;28;20049;-76
2023/09/24 04:54:06;;;;;;;9.40;5.75;;;10.50;99.90;;;;;;4980608;28;20060;-76
2023/09/24 04:56:32;;;;;;;8.85;5.53;;;10.50;99.90;;;;;;4992422;28;20029;-76
2023/09/24 04:58:57;;;;;;;8.10;5.40;;;10.40;99.90;;;;;;4990746;28;20046;-76
2023/09/24 05:01:23;;;;;;;8.32;6.28;;;10.40;99.90;;;;;;4993078;28;20041;-76
2023/09/24 05:03:50;;;;;;;8.27;5.68;;;10.40;99.90;;;;;;4990969;28;20133;-76
2023/09/24 05:06:16;;;;;;;8.35;5.55;;;10.40;99.90;;;;;;4992007;28;20037;-75
2023/09/24 05:08:43;;;;;;;13.38;6.30;;;10.40;99.90;;;;;;4989876;28;20128;-75
2023/09/24 05:11:12;;;;;;;8.05;5.90;;;10.40;99.90;;;;;;4994561;28;20044;-76
2023/09/24 05:13:38;;;;;;;9.93;5.78;;;10.40;99.90;;;;;;4991179;28;20068;-75
2023/09/24 05:16:03;;;;;;;10.18;6.25;;;10.40;99.90;;;;;;4994312;28;20117;-76
2023/09/24 05:18:31;;;;;;;8.38;6.28;;;10.30;99.90;;;;;;4992137;28;20034;-76
2023/09/24 05:20:57;;;;;;;10.38;5.65;;;10.30;99.90;;;;;;4989767;28;20059;-76
2023/09/24 05:23:23;;;;;;;9.68;5.80;;;10.30;99.90;;;;;;4997614;28;20115;-76
2023/09/24 05:25:50;;;;;;;10.65;5.82;;;10.40;99.90;;;;;;4973170;28;20053;-76
2023/09/24 05:28:17;;;;;;;8.05;5.90;;;10.30;99.90;;;;;;4989708;28;20069;-75
2023/09/24 05:30:42;;;;;;;8.75;5.90;;;10.30;99.90;;;;;;4974625;28;20112;-75
2023/09/24 05:33:08;;;;;;;8.32;5.50;;;10.30;99.90;;;;;;4992957;28;20520;-76
2023/09/24 05:35:34;;;;;;;12.05;5.80;;;10.30;99.90;;;;;;4991898;28;20668;-76
2023/09/24 05:37:59;;;;;;;7.28;5.25;;;10.30;99.90;;;;;;4975052;28;20124;-76
2023/09/24 05:40:25;;;;;;;10.13;5.53;;;10.30;99.90;;;;;;4974563;28;20096;-76
2023/09/24 05:42:50;;;;;;;10.15;5.57;;;10.30;99.90;;;;;;4991489;28;20041;-75
2023/09/24 05:45:16;;;;;;;13.82;6.13;;;10.30;99.90;;;;;;5009822;28;20045;-77
2023/09/24 05:47:42;;;;;;;9.38;5.60;;;10.30;99.90;;;;;;4990789;28;20126;-76
2023/09/24 05:50:09;;;;;;;10.13;5.30;;;10.30;99.90;;;;;;4980741;28;20054;-76
2023/09/24 05:52:34;;;;;;;9.35;5.68;;;10.30;99.90;;;;;;5016942;28;20071;-76
2023/09/24 05:55:00;;;;;;;13.20;6.13;;;10.30;99.90;;;;;;5015803;28;20050;-76
2023/09/24 05:57:28;;;;;;;8.90;6.00;;;10.30;99.90;;;;;;4997091;28;20434;-76
2023/09/24 05:59:56;;;;;;;12.77;6.30;;;10.40;99.90;;;;;;4997251;28;20034;-76
2023/09/24 06:02:25;;;;;;;11.98;6.15;;;10.40;99.90;;;;;;4996713;28;20038;-76
2023/09/24 06:04:51;;;;;;;11.63;5.70;;;10.40;99.90;;;;;;4991515;28;20053;-77
2023/09/24 06:07:16;;;;;;;14.52;6.20;;;10.40;99.90;;;;;;4994619;28;20033;-76
2023/09/24 06:09:42;;;;;;;11.27;5.90;;;10.50;99.90;;;;;;4978351;28;20104;-76
2023/09/24 06:12:07;;;;;;;9.80;5.43;;;10.50;99.90;;;;;;4994797;28;20123;-75
2023/09/24 06:14:33;;;;;;;10.15;5.65;;;10.50;99.90;;;;;;4994616;28;20145;-76
2023/09/24 06:16:59;;;;;;;9.48;5.72;;;10.50;99.90;;;;;;4993629;28;20045;-75
2023/09/24 06:19:24;;;;;;;14.82;6.50;;;10.60;99.90;;;;;;4992516;28;20034;-76
2023/09/24 06:21:50;;;;;;;9.88;5.57;;;10.60;99.90;;;;;;4990258;28;20042;-76
2023/09/24 06:24:16;;;;;;;9.98;5.63;;;10.60;99.90;;;;;;4997585;28;20509;-76
2023/09/24 06:26:42;;;;;;;7.18;5.93;;;10.70;99.90;;;;;;4991398;28;20127;-76
2023/09/24 06:29:08;;;;;;;10.90;5.82;;;10.70;99.90;;;;;;4992660;28;20076;-76
2023/09/24 06:31:34;;;;;;;10.90;5.55;;;10.70;99.90;;;;;;4989877;28;20113;-76
2023/09/24 06:34:00;;;;;;;10.20;5.72;;;10.80;99.90;;;;;;4993105;28;20177;-76
2023/09/24 06:36:26;;;;;;;10.48;5.65;;;10.80;99.90;;;;;;4996216;28;20092;-76
2023/09/24 06:38:51;;;;;;;10.30;5.55;;;10.90;99.90;;;;;;4994976;28;20112;-76
2023/09/24 06:41:17;;;;;;;9.35;6.53;;;11.00;99.90;;;;;;4995172;28;20041;-76
2023/09/24 06:43:43;;;;;;;11.25;5.93;;;11.00;99.90;;;;;;4994247;28;20037;-76
2023/09/24 06:46:08;;;;;;;10.40;6.82;;;11.10;99.90;;;;;;4994342;28;20059;-76
2023/09/24 06:48:34;;;;;;;8.77;5.75;;;11.20;99.90;;;;;;4992062;28;20115;-76
2023/09/24 06:51:09;;;;;;;9.77;6.32;;;11.20;99.90;;;;;;4993576;28;20042;-75
2023/09/24 06:53:37;;;;;;;11.85;6.15;;;11.30;99.90;;;;;;4993045;28;20726;-75
2023/09/24 06:56:05;;;;;;;11.45;6.47;;;11.40;99.90;;;;;;4991160;28;20397;-75
2023/09/24 06:58:32;;;;;;;9.63;5.60;;;11.40;99.90;;;;;;4992399;28;20086;-76
2023/09/24 07:01:00;;;;;;;10.00;5.78;;;11.50;99.90;;;;;;4995609;28;20034;-75
2023/09/24 07:03:25;;;;;;;9.20;6.25;;;11.60;99.90;;;;;;4994417;28;20042;-76
2023/09/24 07:05:51;;;;;;;11.52;6.07;;;11.60;99.90;;;;;;4992525;28;20048;-75
2023/09/24 07:08:17;;;;;;;11.18;5.30;;;11.70;99.90;;;;;;4992455;28;20084;-76
2023/09/24 07:10:42;;;;;;;11.18;5.72;;;11.80;99.90;;;;;;4992284;28;20065;-75
2023/09/24 07:13:08;;;;;;;9.55;6.00;;;11.90;99.90;;;;;;4993512;28;20509;-76
2023/09/24 07:15:34;;;;;;;10.40;5.97;;;11.90;99.90;;;;;;4991342;28;20138;-76
2023/09/24 07:17:59;;;;;;;14.75;6.03;;;12.10;99.90;;;;;;4991551;28;20128;-75
2023/09/24 07:20:25;;;;;;;11.05;6.38;;;12.20;99.90;;;;;;4989039;28;20057;-76
2023/09/24 07:22:50;;;;;;;11.40;6.53;;;12.30;99.90;;;;;;4993530;28;20041;-75
2023/09/24 07:25:16;;;;;;;10.20;5.75;;;12.30;99.90;;;;;;4990114;28;20133;-75
2023/09/24 07:27:42;;;;;;;9.20;5.70;;;12.40;99.90;;;;;;4991068;28;20128;-75
2023/09/24 07:30:09;;;;;;;10.18;5.80;;;12.40;99.90;;;;;;4975534;28;20184;-76
2023/09/24 07:32:34;;;;;;;11.35;5.68;;;12.60;99.90;;;;;;4988194;28;20140;-76
2023/09/24 07:35:00;;;;;;;9.07;5.70;;;12.60;99.90;;;;;;4993006;28;20128;-75
2023/09/24 07:37:25;;;;;;;8.15;5.38;;;12.70;99.90;;;;;;5008585;28;20121;-76
2023/09/24 07:39:51;;;;;;;10.65;5.63;;;12.80;99.90;;;;;;5011574;28;20556;-75
2023/09/24 07:42:17;;;;;;;12.07;6.00;;;12.90;99.90;;;;;;5010611;28;20565;-76
2023/09/24 07:44:43;;;;;;;10.95;5.85;;;12.90;99.90;;;;;;4994063;28;20536;-76
2023/09/24 07:47:08;;;;;;;10.73;5.40;;;13.10;99.90;;;;;;4991935;28;20121;-76
2023/09/24 07:49:34;;;;;;;12.50;5.72;;;13.20;99.90;;;;;;5012037;28;20069;-76
2023/09/24 07:52:00;;;;;;;9.80;5.55;;;13.30;99.90;;;;;;4992098;28;20045;-76
2023/09/24 07:54:27;;;;;;;12.73;5.43;;;13.40;99.90;;;;;;5009983;28;20046;-76
2023/09/24 07:56:53;;;;;;;8.15;5.28;;;13.50;99.90;;;;;;5009049;28;20101;-76
2023/09/24 07:59:19;;;;;;;8.35;4.82;;;13.60;99.90;;;;;;4992304;28;20588;-75
2023/09/24 08:01:45;;;;;;;9.88;5.15;;;13.70;99.90;;;;;;4994603;28;20079;-76
2023/09/24 08:04:11;;;;;;;11.20;5.18;;;13.70;99.90;;;;;;4993419;28;20040;-76
2023/09/24 08:06:37;;;;;;;9.95;5.30;;;13.80;99.90;;;;;;4992326;28;20044;-76
2023/09/24 08:09:05;;;;;;;9.90;4.72;;;13.90;99.90;;;;;;5011814;28;20033;-76
2023/09/24 08:11:31;;;;;;;12.25;4.97;;;13.90;99.90;;;;;;4974199;28;20065;-77
2023/09/24 08:13:57;;;;;;;8.05;4.90;;;14.10;99.90;;;;;;5009889;28;20053;-76
2023/09/24 08:16:22;;;;;;;8.60;4.88;;;14.10;99.90;;;;;;4992651;28;20034;-76
2023/09/24 08:18:49;;;;;;;7.53;4.53;;;14.20;99.90;;;;;;4994109;28;20034;-76
2023/09/24 08:21:15;;;;;;;9.57;4.43;;;14.30;99.90;;;;;;4993408;28;20125;-76
2023/09/24 08:23:41;;;;;;;8.50;4.20;;;14.30;99.90;;;;;;4992379;28;20045;-76
2023/09/24 08:26:06;;;;;;;6.97;3.83;;;14.40;99.90;;;;;;4987623;28;20084;-76
2023/09/24 08:28:32;;;;;;;9.43;4.10;;;14.50;99.90;;;;;;5011450;28;20065;-76
2023/09/24 08:30:58;;;;;;;8.95;3.78;;;14.50;99.90;;;;;;4991103;28;20093;-76
2023/09/24 08:33:23;;;;;;;9.63;3.78;;;14.60;99.90;;;;;;4989319;28;20085;-76
2023/09/24 08:35:49;;;;;;;8.93;3.47;;;14.60;99.90;;;;;;4992609;28;20061;-76
2023/09/24 08:38:14;;;;;;;12.27;3.65;;;14.70;99.90;;;;;;4993988;28;20042;-75
2023/09/24 08:40:40;;;;;;;7.18;3.30;;;14.70;99.90;;;;;;4993737;28;20045;-76
2023/09/24 08:43:14;;;;;;;7.53;3.03;;;14.80;99.90;;;;;;5011342;28;20493;-75
2023/09/24 08:45:40;;;;;;;;;;;14.80;99.90;;;;;;4994267;28;20077;-75
2023/09/24 08:48:09;;;;;;;8.40;3.70;;;14.90;99.90;;;;;;5001225;28;19918;-75
2023/09/24 08:50:40;;;;;;;5.70;3.30;;;15.00;99.90;;;;;;4993837;28;20041;-75
2023/09/24 08:53:15;;;;;;;8.57;3.50;;;15.00;99.90;;;;;;5011540;28;20578;-75
2023/09/24 08:55:45;;;;;;;6.68;3.40;;;15.10;99.90;;;;;;4991447;28;20033;-76
2023/09/24 08:58:11;;;;;;;11.50;3.20;;;15.20;99.90;;;;;;4987633;28;20504;-76
2023/09/24 09:00:38;;;;;;;6.85;2.47;;;15.20;99.90;;;;;;4982042;28;20137;-76
2023/09/24 09:03:04;;;;;;;8.38;3.45;;;15.30;99.90;;;;;;4986292;28;20041;-76
2023/09/24 09:05:34;;;;;;;11.50;3.00;;;15.40;99.90;;;;;;4987496;28;20046;-76
2023/09/24 09:08:02;;;;;;;7.18;2.80;;;15.40;99.90;;;;;;4985654;28;20034;-76
2023/09/24 09:10:30;;;;;;;8.70;3.22;;;15.50;99.90;;;;;;5002119;28;20418;-76
2023/09/24 09:13:06;;;;;;;9.90;2.95;;;15.40;99.90;;;;;;4989292;28;20045;-76
2023/09/24 09:15:32;;;;;;;6.60;2.92;;;15.50;99.90;;;;;;4983954;28;20050;-76
2023/09/24 09:18:00;;;;;;;8.00;3.40;;;15.50;99.90;;;;;;4982993;28;20029;-75
2023/09/24 09:20:45;;;;;;;8.50;2.90;;;15.60;99.90;;;;;;4988022;28;20406;-75
2023/09/24 09:23:13;;;;;;;8.50;2.60;;;15.60;99.90;;;;;;4995510;28;20429;-76
2023/09/24 09:25:52;;;;;;;5.63;2.60;;;15.70;99.90;;;;;;4993038;28;20524;-75
2023/09/24 09:28:29;;;;;;;10.25;2.50;;;15.70;99.90;;;;;;4993648;28;20042;-76
2023/09/24 09:31:10;;;;;;;6.05;2.53;;;15.80;99.90;;;;;;4997175;28;20083;-76
2023/09/24 09:33:44;;;;;;;5.03;2.30;;;15.80;99.90;;;;;;4997464;28;20091;-76
2023/09/24 09:36:20;;;;;;;5.32;2.35;;;15.80;99.90;;;;;;4997473;28;20080;-76
2023/09/24 09:38:46;;;;;;;5.70;2.08;;;15.80;99.90;;;;;;4996864;28;20034;-76
2023/09/24 09:41:12;;;;;;;3.78;2.33;;;15.90;99.90;;;;;;4997237;28;20041;-76
2023/09/24 09:43:40;;;;;;;5.43;2.50;;;16.00;99.90;;;;;;4997102;28;20060;-76
2023/09/24 09:46:09;;;;;;;5.95;2.53;;;16.00;99.90;;;;;;4981346;28;20040;-76
2023/09/24 09:48:35;;;;;;;6.93;2.30;;;16.10;99.90;;;;;;4996440;28;20552;-77
2023/09/24 09:51:05;;;;;;;4.57;2.08;;;16.10;99.90;;;;;;4997440;28;20038;-77
2023/09/24 09:53:34;;;;;;;5.15;2.10;;;16.20;99.90;;;;;;4997138;28;20046;-77
2023/09/24 09:56:07;;;;;;;6.82;2.50;;;16.20;99.90;;;;;;4996901;28;20779;-76
2023/09/24 09:58:37;;;;;;;8.10;2.60;;;16.30;99.90;;;;;;4996228;28;20041;-77
2023/09/24 10:01:07;;;;;;;7.70;2.60;;;16.30;99.90;;;;;;4992000;28;20501;-76
2023/09/24 10:03:38;;;;;;;6.35;2.03;;;16.40;99.90;;;;;;4998963;28;20042;-77
2023/09/24 10:06:06;;;;;;;6.25;2.10;;;16.50;99.90;;;;;;4997204;28;20457;-77
2023/09/24 10:08:35;;;;;;;10.38;2.88;;;16.60;99.90;;;;;;4995882;28;20045;-77
2023/09/24 10:11:01;;;;;;;5.22;2.20;;;16.60;99.90;;;;;;4996827;28;20033;-77
2023/09/24 10:13:46;;;;;;;10.23;2.83;;;16.70;99.90;;;;;;4980221;28;20053;-77
2023/09/24 10:16:30;;;;;;;5.63;2.03;;;16.80;99.90;;;;;;4996904;28;20131;-77
2023/09/24 10:18:58;;;;;;;7.82;2.20;;;16.90;99.90;;;;;;4996906;28;20113;-77
2023/09/24 10:21:32;;;;;;;6.82;2.30;;;16.90;99.90;;;;;;4999210;28;20520;-78
2023/09/24 10:24:10;;;;;;;6.63;2.03;;;16.90;99.90;;;;;;4996226;28;20509;-77
2023/09/24 10:26:47;;;;;;;5.88;2.25;;;17.00;99.90;;;;;;4980192;28;20034;-78
2023/09/24 10:29:13;;;;;;;5.65;1.67;;;17.10;99.90;;;;;;4999158;28;20052;-78
2023/09/24 10:32:08;;;;;;;5.57;1.85;;;17.10;99.90;;;;;;4998192;28;20042;-77
2023/09/24 10:34:54;;;;;;;5.78;1.60;;;17.10;99.90;;;;;;4996891;28;20038;-77
2023/09/24 10:37:26;;;;;;;5.95;1.90;;;17.20;99.90;;;;;;4997044;28;20552;-78
2023/09/24 10:40:09;;;;;;;4.85;1.63;;;17.30;99.90;;;;;;4982594;28;20101;-77
2023/09/24 10:42:39;;;;;;;5.60;1.83;;;17.30;99.90;;;;;;5019104;28;20096;-77
2023/09/24 10:45:07;;;;;;;7.25;2.05;;;17.40;99.90;;;;;;4996876;28;20492;-78
2023/09/24 10:47:38;;;;;;;3.92;1.52;;;17.40;99.90;;;;;;4996728;28;20493;-78
2023/09/24 10:50:15;;;;;;;6.78;2.05;;;17.40;99.90;;;;;;4996435;28;20065;-78
2023/09/24 10:52:59;;;;;;;6.53;2.15;;;17.50;99.90;;;;;;4980433;28;20132;-78
2023/09/24 10:55:30;;;;;;;5.95;2.05;;;17.50;99.90;;;;;;4996410;28;20078;-78
2023/09/24 10:58:09;;;;;;;4.95;1.90;;;17.70;99.90;;;;;;5000395;28;20053;-78
2023/09/24 11:00:35;;;;;;;5.50;1.80;;;17.70;99.90;;;;;;4997970;28;20041;-77
2023/09/24 11:03:05;;;;;;;4.90;1.88;;;17.80;99.90;;;;;;4980932;28;20436;-78
2023/09/24 11:05:41;;;;;;;5.05;1.70;;;17.90;99.90;;;;;;4996249;28;20077;-78
2023/09/24 11:08:07;;;;;;;6.43;1.73;;;18.00;99.90;;;;;;4992796;28;20045;-78
2023/09/24 11:10:33;;;;;;;5.05;1.63;;;18.00;99.90;;;;;;4997685;28;20456;-78
2023/09/24 11:13:01;;;;;;;4.75;1.50;;;18.10;99.90;;;;;;4997502;28;20042;-78
2023/09/24 11:15:32;;;;;;;5.90;1.88;;;18.20;99.90;;;;;;4998341;28;20073;-78
2023/09/24 11:17:59;;;;;;;5.95;1.58;;;18.30;99.90;;;;;;4997847;28;20493;-79
2023/09/24 11:20:28;;;;;;;8.02;1.75;;;18.50;99.90;;;;;;4980901;28;20042;-78
2023/09/24 11:23:01;;;;;;;5.82;1.40;;;18.50;99.90;;;;;;4996607;28;20692;-80
2023/09/24 11:25:28;;;;;;;4.78;1.52;;;18.60;99.90;;;;;;5014429;28;20096;-79
2023/09/24 11:27:56;;;;;;;3.72;1.48;;;18.70;99.90;;;;;;4999555;28;20046;-79
2023/09/24 11:30:26;;;;;;;4.93;1.45;;;18.90;99.90;;;;;;4998645;28;20052;-80
2023/09/24 11:32:52;;;;;;;5.55;1.73;;;18.90;99.90;;;;;;4999719;28;20069;-80
2023/09/24 11:35:20;;;;;;;5.00;1.50;;;19.00;99.90;;;;;;4999705;28;20092;-80
2023/09/24 11:37:50;;;;;;;7.10;1.67;;;19.30;99.90;;;;;;5000448;28;20064;-79
2023/09/24 11:40:38;;;;;;;5.60;1.70;;;19.30;99.90;;;;;;4999963;28;20057;-79
2023/09/24 11:43:16;;;;;;;4.40;1.52;;;19.50;99.90;;;;;;4998677;28;20026;-79
2023/09/24 11:45:42;;;;;;;4.38;1.40;;;19.50;99.90;;;;;;4983425;28;20409;-78
2023/09/24 11:48:13;;;;;;;3.78;1.70;;;19.40;99.90;;;;;;5003884;28;20034;-79
2023/09/24 11:50:41;;;;;;;3.38;1.52;;;19.50;99.90;;;;;;4981240;28;20177;-80
2023/09/24 11:53:07;;;;;;;4.97;1.55;;;19.50;99.90;;;;;;5000235;28;20042;-79
2023/09/24 11:55:33;;;;;;;5.07;1.23;;;19.30;99.90;;;;;;4998892;28;20033;-79
2023/09/24 11:57:58;;;;;;;4.20;1.50;;;19.50;99.90;;;;;;4999449;28;20046;-79
2023/09/24 12:00:24;;;;;;;3.53;1.50;;;19.50;99.90;;;;;;5000377;28;20080;-79
2023/09/24 12:02:50;;;;;;;3.33;1.60;;;19.50;99.90;;;;;;4999414;28;20029;-80
2023/09/24 12:05:16;;;;;;;3.58;1.33;;;19.50;99.90;;;;;;4983308;28;20120;-80
2023/09/24 12:07:42;;;;;;;4.45;1.70;;;19.50;99.90;;;;;;5000270;28;20408;-79
2023/09/24 12:10:08;;;;;;;3.55;1.35;;;19.60;99.90;;;;;;4998366;28;20413;-80
2023/09/24 12:12:33;;;;;;;3.80;1.50;;;19.60;99.90;;;;;;4991367;28;20042;-79
2023/09/24 12:14:59;;;;;;;3.50;1.55;;;19.70;99.90;;;;;;5004586;28;20405;-80
2023/09/24 12:17:24;;;;;;;5.53;1.67;;;19.90;99.90;;;;;;5013261;28;20041;-79
2023/09/24 12:19:52;;;;;;;4.05;1.38;;;20.00;99.90;;;;;;4997636;28;20034;-79
2023/09/24 12:22:18;;;;;;;4.10;1.50;;;20.30;99.90;;;;;;4987437;28;20412;-79
2023/09/24 12:24:43;;;;;;;4.32;1.45;;;20.40;99.90;;;;;;4990128;28;20048;-79
2023/09/24 12:27:09;;;;;;;5.15;1.58;;;20.40;99.90;;;;;;4994109;28;20129;-79
2023/09/24 12:29:35;;;;;;;3.88;1.55;;;20.50;99.90;;;;;;5000879;28;20057;-79
2023/09/24 12:32:00;;;;;;;3.97;1.48;;;20.70;99.90;;;;;;4997392;28;20389;-81
2023/09/24 12:34:26;;;;;;;3.75;1.30;;;20.80;99.90;;;;;;4993271;28;20075;-79
2023/09/24 12:36:51;;;;;;;3.55;1.48;;;20.90;99.90;;;;;;4996008;28;20033;-79
2023/09/24 12:39:19;;;;;;;3.88;1.33;;;21.10;99.90;;;;;;4994590;28;20056;-79
2023/09/24 12:41:48;;;;;;;4.32;1.25;;;21.20;99.90;;;;;;4995022;28;20060;-79
2023/09/24 12:44:14;;;;;;;2.42;1.20;;;21.20;99.90;;;;;;4998153;28;20037;-78
2023/09/24 12:46:40;;;;;;;3.10;1.33;;;21.20;99.90;;;;;;4991515;28;20049;-80